Time;durP1;ratioP1;P1;durP2;ratioP2;P2;SDS_P1;SDS_P2;PMS_P1;PMS_P2;Temp;Humidity;BMP_temperature;BMP_pressure;BME280_temperature;BME280_humidity;BME280_pressure;Samples;Min_cycle;Max_cycle;Signal;HPM_P1;HPM_P2
2023/03/16 00:04:12;;;;;;;0.97;0.70;;;;;;;;;;10355169;28;20049;-70
2023/03/16 00:09:12;;;;;;;0.60;0.60;;;;;;;;;;10339499;28;20029;-70
2023/03/16 00:14:13;;;;;;;0.57;0.40;;;;;;;;;;10339660;28;20038;-69
2023/03/16 00:19:13;;;;;;;0.50;0.50;;;;;;;;;;10339814;28;20117;-70
2023/03/16 00:24:16;;;;;;;1.00;0.90;;;;;;;;;;10339473;28;20784;-69
2023/03/16 00:29:17;;;;;;;1.13;0.73;;;;;;;;;;10341703;28;20026;-69
2023/03/16 00:34:17;;;;;;;0.88;0.80;;;;;;;;;;10339480;28;20041;-69
2023/03/16 00:39:17;;;;;;;0.90;0.70;;;;;;;;;;10339037;28;20034;-71
2023/03/16 00:44:18;;;;;;;1.70;0.90;;;;;;;;;;10339554;28;20790;-70
2023/03/16 00:49:18;;;;;;;0.90;0.77;;;;;;;;;;10338908;28;20077;-69
2023/03/16 00:54:18;;;;;;;1.02;0.90;;;;;;;;;;10354267;28;20057;-69
2023/03/16 00:59:20;;;;;;;0.85;0.80;;;;;;;;;;10340920;28;20037;-71
2023/03/16 01:04:21;;;;;;;1.83;1.17;;;;;;;;;;10345547;28;20029;-70
2023/03/16 01:09:21;;;;;;;1.42;0.88;;;;;;;;;;10361061;28;20528;-70
2023/03/16 01:14:21;;;;;;;0.80;0.77;;;;;;;;;;10345206;28;20038;-71
2023/03/16 01:19:22;;;;;;;0.90;0.85;;;;;;;;;;10345317;28;20025;-71
2023/03/16 01:24:23;;;;;;;0.80;0.80;;;;;;;;;;10344692;28;20485;-69
2023/03/16 01:29:24;;;;;;;0.75;0.73;;;;;;;;;;10347472;28;20085;-70
2023/03/16 01:34:24;;;;;;;0.68;0.68;;;;;;;;;;10345209;28;20037;-70
2023/03/16 01:39:24;;;;;;;1.83;0.93;;;;;;;;;;10359864;28;20654;-70
2023/03/16 01:44:31;;;;;;;1.60;1.20;;;;;;;;;;10343767;28;20106;-70
2023/03/16 01:49:34;;;;;;;1.70;0.85;;;;;;;;;;10344493;28;20042;-69
2023/03/16 01:54:37;;;;;;;1.85;1.00;;;;;;;;;;10344206;28;20194;-72
2023/03/16 01:59:43;;;;;;;1.70;0.98;;;;;;;;;;10344638;28;20038;-70
2023/03/16 02:04:58;;;;;;;5.05;1.13;;;;;;;;;;10343388;28;20045;-71
2023/03/16 02:10:01;;;;;;;1.38;0.93;;;;;;;;;;10343126;28;20041;-69
2023/03/16 02:15:01;;;;;;;2.72;0.90;;;;;;;;;;10344395;28;20034;-71
2023/03/16 02:20:15;;;;;;;0.80;0.80;;;;;;;;;;10344070;28;20046;-71
2023/03/16 02:25:17;;;;;;;1.25;0.80;;;;;;;;;;10344057;28;20281;-68
2023/03/16 02:30:18;;;;;;;0.88;0.80;;;;;;;;;;10342851;28;20034;-69
2023/03/16 02:35:19;;;;;;;1.13;1.05;;;;;;;;;;10342876;28;20441;-69
2023/03/16 02:40:22;;;;;;;1.15;1.00;;;;;;;;;;10342431;28;20045;-71
2023/03/16 02:45:24;;;;;;;1.80;1.23;;;;;;;;;;10342042;28;20108;-72
2023/03/16 02:50:24;;;;;;;1.55;1.08;;;;;;;;;;10342276;28;20041;-71
2023/03/16 02:55:24;;;;;;;1.43;1.27;;;;;;;;;;10341672;28;20782;-70
2023/03/16 03:00:25;;;;;;;1.77;1.10;;;;;;;;;;10341828;28;20060;-69
2023/03/16 03:05:25;;;;;;;1.07;0.70;;;;;;;;;;10341372;28;20033;-69
2023/03/16 03:10:25;;;;;;;0.77;0.70;;;;;;;;;;10334476;28;20675;-69
2023/03/16 03:15:26;;;;;;;2.70;0.70;;;;;;;;;;10344764;28;20045;-69
2023/03/16 03:20:26;;;;;;;2.40;1.40;;;;;;;;;;10340995;28;20040;-69
2023/03/16 03:25:26;;;;;;;1.07;0.97;;;;;;;;;;10340682;28;20500;-69
2023/03/16 03:30:27;;;;;;;1.77;1.00;;;;;;;;;;10340699;28;20034;-69
2023/03/16 03:35:27;;;;;;;1.02;0.85;;;;;;;;;;10340810;28;20042;-69
2023/03/16 03:40:28;;;;;;;0.77;0.67;;;;;;;;;;10355793;28;20076;-69
2023/03/16 03:45:28;;;;;;;0.73;0.63;;;;;;;;;;10339925;28;20046;-69
2023/03/16 03:50:28;;;;;;;0.40;0.37;;;;;;;;;;10356370;28;20083;-70
2023/03/16 03:55:29;;;;;;;1.13;0.80;;;;;;;;;;10340381;28;20064;-70
2023/03/16 04:00:30;;;;;;;0.80;0.80;;;;;;;;;;10340345;28;20034;-70
2023/03/16 04:05:30;;;;;;;2.35;0.90;;;;;;;;;;10339983;28;20472;-70
2023/03/16 04:10:30;;;;;;;0.73;0.60;;;;;;;;;;10339698;28;20030;-70
2023/03/16 04:15:31;;;;;;;0.88;0.77;;;;;;;;;;10340034;28;20575;-70
2023/03/16 04:20:32;;;;;;;2.97;0.68;;;;;;;;;;10335511;28;20034;-71
2023/03/16 04:25:32;;;;;;;1.80;0.70;;;;;;;;;;10353489;28;20042;-71
2023/03/16 04:30:33;;;;;;;0.52;0.52;;;;;;;;;;10340097;28;20038;-72
2023/03/16 04:35:34;;;;;;;2.95;0.73;;;;;;;;;;10345313;28;20026;-71
2023/03/16 04:40:34;;;;;;;1.85;0.95;;;;;;;;;;10347056;28;20485;-71
2023/03/16 04:45:34;;;;;;;1.00;0.95;;;;;;;;;;10346700;28;20524;-71
2023/03/16 04:50:35;;;;;;;1.35;0.85;;;;;;;;;;10339167;28;20651;-72
2023/03/16 04:55:35;;;;;;;3.57;1.60;;;;;;;;;;10330982;28;20034;-71
2023/03/16 05:00:35;;;;;;;1.40;0.63;;;;;;;;;;10341641;28;20484;-72
2023/03/16 05:05:37;;;;;;;2.07;1.00;;;;;;;;;;10319717;28;20481;-72
2023/03/16 05:10:37;;;;;;;2.38;1.40;;;;;;;;;;10322382;28;20284;-69
2023/03/16 05:15:38;;;;;;;1.58;1.38;;;;;;;;;;10316334;28;20386;-72
2023/03/16 05:20:38;;;;;;;2.25;1.63;;;;;;;;;;10320048;28;20053;-72
2023/03/16 05:25:39;;;;;;;2.42;1.80;;;;;;;;;;10317707;28;20045;-70
2023/03/16 05:30:41;;;;;;;2.90;2.20;;;;;;;;;;10325595;28;20038;-71
2023/03/16 05:35:41;;;;;;;1.52;1.38;;;;;;;;;;10315495;28;20516;-70
2023/03/16 05:40:42;;;;;;;12.30;7.05;;;;;;;;;;10320398;28;20030;-72
2023/03/16 05:45:42;;;;;;;1.58;1.25;;;;;;;;;;10324887;28;20794;-71
2023/03/16 05:50:43;;;;;;;2.40;1.63;;;;;;;;;;10316478;28;20076;-69
2023/03/16 05:55:43;;;;;;;3.80;2.57;;;;;;;;;;10323973;28;20101;-70
2023/03/16 06:00:43;;;;;;;3.50;2.10;;;;;;;;;;10317269;28;20042;-71
2023/03/16 06:05:44;;;;;;;2.75;1.60;;;;;;;;;;10313955;28;20039;-70
2023/03/16 06:10:47;;;;;;;1.67;1.20;;;;;;;;;;10325893;28;20104;-71
2023/03/16 06:15:48;;;;;;;2.17;1.67;;;;;;;;;;10313346;28;20982;-70
2023/03/16 06:20:48;;;;;;;3.33;2.05;;;;;;;;;;10316500;28;20339;-70
2023/03/16 06:25:49;;;;;;;2.10;1.17;;;;;;;;;;10330935;28;20034;-72
2023/03/16 06:30:54;;;;;;;4.05;1.63;;;;;;;;;;10313599;28;20036;-68
2023/03/16 06:35:54;;;;;;;1.85;1.65;;;;;;;;;;10315636;28;20057;-70
2023/03/16 06:40:54;;;;;;;2.73;2.03;;;;;;;;;;10305089;28;20049;-70
2023/03/16 06:45:54;;;;;;;4.82;1.70;;;;;;;;;;10318877;28;20505;-70
2023/03/16 06:50:55;;;;;;;4.87;2.40;;;;;;;;;;10309618;28;20050;-69
2023/03/16 06:55:55;;;;;;;5.13;2.20;;;;;;;;;;10311904;28;20066;-70
2023/03/16 07:00:55;;;;;;;2.95;1.40;;;;;;;;;;10328044;28;20133;-70
2023/03/16 07:05:56;;;;;;;4.07;2.65;;;;;;;;;;10319263;28;20030;-69
2023/03/16 07:10:56;;;;;;;5.33;2.87;;;;;;;;;;10313998;28;20436;-69
2023/03/16 07:15:56;;;;;;;2.47;1.85;;;;;;;;;;10321348;28;20280;-69
2023/03/16 07:20:57;;;;;;;4.97;2.30;;;;;;;;;;10317324;28;20026;-69
2023/03/16 07:25:57;;;;;;;2.63;2.10;;;;;;;;;;10309424;28;20045;-69
2023/03/16 07:30:58;;;;;;;2.87;2.27;;;;;;;;;;10314742;28;20034;-70
2023/03/16 07:35:58;;;;;;;3.42;1.98;;;;;;;;;;10308545;28;20030;-70
2023/03/16 07:40:59;;;;;;;2.80;1.92;;;;;;;;;;10312334;28;20030;-69
2023/03/16 07:46:00;;;;;;;3.92;1.83;;;;;;;;;;10315310;28;20173;-69
2023/03/16 07:51:00;;;;;;;7.82;2.65;;;;;;;;;;10305568;28;20042;-69
2023/03/16 07:56:01;;;;;;;3.78;2.58;;;;;;;;;;10329684;28;20121;-68
2023/03/16 08:01:01;;;;;;;2.78;2.10;;;;;;;;;;10313331;28;20382;-68
2023/03/16 08:06:01;;;;;;;4.80;2.30;;;;;;;;;;10315191;28;20521;-69
2023/03/16 08:11:01;;;;;;;5.95;1.88;;;;;;;;;;10329175;28;20094;-69
2023/03/16 08:16:02;;;;;;;3.72;3.08;;;;;;;;;;10328052;28;20036;-70
2023/03/16 08:21:02;;;;;;;3.07;1.93;;;;;;;;;;10332273;28;20026;-71
2023/03/16 08:26:07;;;;;;;4.70;1.77;;;;;;;;;;10329387;28;20437;-70
2023/03/16 08:31:07;;;;;;;4.13;2.75;;;;;;;;;;10319316;28;20488;-69
2023/03/16 08:36:09;;;;;;;3.87;1.57;;;;;;;;;;10323760;28;20484;-70
2023/03/16 08:41:11;;;;;;;6.45;1.98;;;;;;;;;;10320552;28;20658;-69
2023/03/16 08:46:12;;;;;;;1.30;1.20;;;;;;;;;;10321843;28;20093;-69
2023/03/16 08:51:12;;;;;;;4.00;1.75;;;;;;;;;;10334127;28;20448;-70
2023/03/16 08:56:13;;;;;;;2.85;1.27;;;;;;;;;;10328578;28;20509;-70
2023/03/16 09:01:16;;;;;;;4.35;1.73;;;;;;;;;;10345612;28;20025;-69
2023/03/16 09:06:16;;;;;;;3.72;1.70;;;;;;;;;;10351372;28;20034;-69
2023/03/16 09:11:17;;;;;;;2.07;1.50;;;;;;;;;;10352183;28;20041;-69
2023/03/16 09:16:18;;;;;;;2.67;1.73;;;;;;;;;;10341843;28;20528;-69
2023/03/16 09:21:19;;;;;;;5.45;2.15;;;;;;;;;;10346517;28;20026;-69
2023/03/16 09:26:19;;;;;;;2.17;1.50;;;;;;;;;;10360829;28;20038;-69
2023/03/16 09:31:20;;;;;;;7.00;3.60;;;;;;;;;;10343860;28;20119;-70
2023/03/16 09:36:20;;;;;;;3.55;1.52;;;;;;;;;;10360272;28;20787;-69
2023/03/16 09:41:23;;;;;;;1.30;1.17;;;;;;;;;;10344176;28;20041;-69
2023/03/16 09:46:31;;;;;;;2.28;1.90;;;;;;;;;;10358508;28;20049;-69
2023/03/16 09:51:32;;;;;;;3.70;1.60;;;;;;;;;;10343262;28;20038;-69
2023/03/16 09:56:39;;;;;;;2.03;1.92;;;;;;;;;;10320804;28;20270;-71
2023/03/16 10:01:40;;;;;;;2.53;1.90;;;;;;;;;;10318937;28;20449;-71
2023/03/16 10:06:51;;;;;;;3.08;2.10;;;;;;;;;;10321883;28;20030;-70
2023/03/16 10:11:56;;;;;;;3.97;2.95;;;;;;;;;;10358213;28;20425;-70
2023/03/16 10:16:57;;;;;;;4.45;2.97;;;;;;;;;;10342942;28;20523;-69
2023/03/16 10:21:59;;;;;;;6.05;3.25;;;;;;;;;;10343085;28;20037;-70
2023/03/16 10:27:00;;;;;;;6.38;3.47;;;;;;;;;;10342149;28;20135;-70
2023/03/16 10:32:05;;;;;;;3.45;2.50;;;;;;;;;;10342257;28;20045;-69
2023/03/16 10:37:10;;;;;;;3.95;2.63;;;;;;;;;;10342120;28;20056;-69
2023/03/16 10:42:19;;;;;;;4.40;3.80;;;;;;;;;;10341964;28;20059;-69
2023/03/16 10:47:19;;;;;;;;;;;;;;;;;;10341742;28;20100;-70
2023/03/16 10:52:33;;;;;;;4.80;2.25;;;;;;;;;;10341539;28;19980;-70
2023/03/16 10:57:35;;;;;;;4.10;2.72;;;;;;;;;;10341331;28;20029;-70
2023/03/16 11:02:36;;;;;;;5.43;2.72;;;;;;;;;;10341330;28;20808;-70
2023/03/16 11:07:36;;;;;;;4.07;3.10;;;;;;;;;;10341111;28;20076;-69
2023/03/16 11:12:37;;;;;;;4.47;2.87;;;;;;;;;;10340873;28;20396;-71
2023/03/16 11:17:42;;;;;;;19.00;4.75;;;;;;;;;;10336428;28;20021;-69
2023/03/16 11:22:44;;;;;;;9.25;3.75;;;;;;;;;;10355357;28;20034;-70
2023/03/16 11:28:10;;;;;;;3.45;2.47;;;;;;;;;;10340182;28;20089;-71
2023/03/16 11:33:13;;;;;;;3.88;2.65;;;;;;;;;;10339720;28;20061;-69
2023/03/16 11:38:16;;;;;;;9.65;3.38;;;;;;;;;;10321499;28;20059;-69
2023/03/16 11:43:22;;;;;;;8.35;3.05;;;;;;;;;;10312380;28;20038;-70
2023/03/16 11:48:41;;;;;;;6.32;4.25;;;;;;;;;;10333917;28;20050;-70
2023/03/16 11:53:48;;;;;;;5.40;3.85;;;;;;;;;;10339699;28;20482;-69
2023/03/16 11:58:54;;;;;;;8.20;4.60;;;;;;;;;;10339271;28;20037;-70
2023/03/16 12:04:13;;;;;;;4.70;2.95;;;;;;;;;;10339258;28;20033;-69
2023/03/16 12:09:21;;;;;;;6.15;3.85;;;;;;;;;;10339265;28;20113;-70
2023/03/16 12:14:25;;;;;;;6.22;4.60;;;;;;;;;;10315208;28;20034;-70
2023/03/16 12:19:39;;;;;;;5.97;3.90;;;;;;;;;;10339578;28;20036;-70
2023/03/16 12:24:41;;;;;;;7.85;4.72;;;;;;;;;;10353774;28;20125;-71
2023/03/16 12:29:48;;;;;;;9.00;4.63;;;;;;;;;;10353770;28;20548;-70
2023/03/16 12:35:08;;;;;;;7.43;5.18;;;;;;;;;;10333822;28;20034;-71
2023/03/16 12:40:17;;;;;;;6.90;3.95;;;;;;;;;;10315158;28;20092;-71
2023/03/16 12:45:39;;;;;;;7.75;3.60;;;;;;;;;;10312101;28;20051;-70
2023/03/16 12:50:54;;;;;;;6.05;4.03;;;;;;;;;;10325443;28;20088;-71
2023/03/16 12:55:56;;;;;;;14.57;4.95;;;;;;;;;;10339790;28;20057;-70
2023/03/16 13:00:58;;;;;;;4.25;3.70;;;;;;;;;;10321302;28;20165;-70
2023/03/16 13:05:59;;;;;;;7.10;4.65;;;;;;;;;;10311890;28;20029;-71
2023/03/16 13:11:03;;;;;;;8.15;4.60;;;;;;;;;;10320756;28;20741;-70
2023/03/16 13:16:08;;;;;;;9.20;5.22;;;;;;;;;;10320568;28;20396;-70
2023/03/16 13:21:32;;;;;;;11.52;6.80;;;;;;;;;;10333567;28;20752;-71
2023/03/16 13:26:45;;;;;;;15.73;10.73;;;;;;;;;;10315622;28;20049;-71
2023/03/16 13:31:46;;;;;;;12.20;6.00;;;;;;;;;;10324739;28;20125;-70
2023/03/16 13:36:48;;;;;;;11.85;5.43;;;;;;;;;;10319176;28;20100;-70
2023/03/16 13:41:56;;;;;;;13.23;7.00;;;;;;;;;;10313145;28;20405;-70
2023/03/16 13:47:01;;;;;;;12.60;6.20;;;;;;;;;;10319613;28;20046;-71
2023/03/16 13:52:02;;;;;;;10.32;6.85;;;;;;;;;;10321432;28;20162;-71
2023/03/16 13:57:05;;;;;;;10.63;6.60;;;;;;;;;;10319317;28;20170;-70
2023/03/16 14:02:15;;;;;;;17.45;8.65;;;;;;;;;;10326180;28;20539;-71
2023/03/16 14:07:20;;;;;;;13.02;7.32;;;;;;;;;;10316631;28;20042;-70
2023/03/16 14:12:20;;;;;;;11.80;7.88;;;;;;;;;;10313855;28;20536;-70
2023/03/16 14:17:21;;;;;;;11.93;7.55;;;;;;;;;;10311125;28;20687;-71
2023/03/16 14:22:22;;;;;;;9.85;7.07;;;;;;;;;;10322505;28;20125;-71
2023/03/16 14:27:38;;;;;;;13.57;8.05;;;;;;;;;;10319609;28;20802;-69
2023/03/16 14:32:38;;;;;;;15.15;8.80;;;;;;;;;;10325081;28;20130;-71
2023/03/16 14:37:40;;;;;;;15.83;8.80;;;;;;;;;;10314583;28;20339;-72
2023/03/16 14:42:41;;;;;;;17.70;9.93;;;;;;;;;;10324422;28;20276;-72
2023/03/16 14:47:42;;;;;;;16.42;9.20;;;;;;;;;;10315704;28;20113;-71
2023/03/16 14:52:44;;;;;;;15.85;8.80;;;;;;;;;;10333716;28;20113;-72
2023/03/16 14:57:44;;;;;;;21.65;10.80;;;;;;;;;;10328667;28;20065;-70
2023/03/16 15:02:57;;;;;;;16.80;9.88;;;;;;;;;;10331948;28;20525;-70
2023/03/16 15:07:57;;;;;;;19.58;10.63;;;;;;;;;;10316028;28;20038;-70
2023/03/16 15:13:11;;;;;;;17.45;10.25;;;;;;;;;;10316731;28;20050;-70
2023/03/16 15:18:11;;;;;;;20.40;9.93;;;;;;;;;;10327446;28;20057;-70
2023/03/16 15:23:13;;;;;;;19.05;9.10;;;;;;;;;;10313477;28;20042;-72
2023/03/16 15:28:18;;;;;;;18.23;10.68;;;;;;;;;;10305290;28;20042;-69
2023/03/16 15:33:18;;;;;;;21.23;11.75;;;;;;;;;;10320901;28;20042;-71
2023/03/16 15:38:33;;;;;;;17.27;9.10;;;;;;;;;;10307521;28;20038;-69
2023/03/16 15:43:33;;;;;;;15.68;9.93;;;;;;;;;;10314809;28;20381;-71
2023/03/16 15:48:34;;;;;;;22.58;9.82;;;;;;;;;;10315996;28;20094;-69
2023/03/16 15:53:39;;;;;;;20.02;9.38;;;;;;;;;;10312248;28;20494;-71
2023/03/16 15:58:41;;;;;;;31.02;18.63;;;;;;;;;;10311478;28;20125;-70
2023/03/16 16:03:41;;;;;;;20.08;12.02;;;;;;;;;;10312246;28;20416;-70
2023/03/16 16:08:42;;;;;;;24.90;11.35;;;;;;;;;;10318249;28;20045;-70
2023/03/16 16:13:42;;;;;;;24.43;11.87;;;;;;;;;;10306237;28;20042;-70
2023/03/16 16:18:43;;;;;;;21.08;9.70;;;;;;;;;;10311398;28;20289;-70
2023/03/16 16:23:44;;;;;;;18.70;10.55;;;;;;;;;;10320428;28;20042;-70
2023/03/16 16:28:46;;;;;;;23.33;12.63;;;;;;;;;;10317528;28;20041;-70
2023/03/16 16:33:46;;;;;;;22.75;11.18;;;;;;;;;;10327467;28;20041;-70
2023/03/16 16:38:47;;;;;;;21.35;11.25;;;;;;;;;;10319668;28;20041;-71
2023/03/16 16:43:49;;;;;;;19.92;10.52;;;;;;;;;;10322516;28;20042;-69
2023/03/16 16:48:51;;;;;;;23.00;11.60;;;;;;;;;;10326673;28;20058;-70
2023/03/16 16:53:55;;;;;;;28.60;13.55;;;;;;;;;;10320584;28;20046;-68
2023/03/16 16:58:56;;;;;;;22.10;10.30;;;;;;;;;;10319687;28;20726;-69
2023/03/16 17:03:57;;;;;;;20.40;11.77;;;;;;;;;;10324807;28;20088;-69
2023/03/16 17:08:57;;;;;;;23.15;11.10;;;;;;;;;;10321216;28;20492;-72
2023/03/16 17:13:59;;;;;;;28.10;13.17;;;;;;;;;;10318294;28;20035;-72
2023/03/16 17:19:00;;;;;;;25.10;12.25;;;;;;;;;;10325447;28;20578;-70
2023/03/16 17:24:01;;;;;;;24.23;12.07;;;;;;;;;;10327274;28;20056;-70
2023/03/16 17:29:01;;;;;;;31.33;14.25;;;;;;;;;;10325846;28;20033;-70
2023/03/16 17:34:05;;;;;;;24.73;13.33;;;;;;;;;;10336704;28;20038;-70
2023/03/16 17:39:15;;;;;;;26.85;14.15;;;;;;;;;;10336977;28;20049;-71
2023/03/16 17:44:15;;;;;;;27.20;11.50;;;;;;;;;;10330209;28;20037;-69
2023/03/16 17:49:16;;;;;;;23.08;12.65;;;;;;;;;;10316161;28;20449;-71
2023/03/16 17:54:17;;;;;;;26.20;13.80;;;;;;;;;;10323599;28;20064;-70
2023/03/16 17:59:18;;;;;;;28.20;13.30;;;;;;;;;;10323633;28;20069;-69
2023/03/16 18:04:23;;;;;;;23.85;14.43;;;;;;;;;;10317305;28;20042;-69
2023/03/16 18:09:23;;;;;;;22.83;13.00;;;;;;;;;;10320119;28;20464;-70
2023/03/16 18:14:35;;;;;;;19.57;12.03;;;;;;;;;;10316495;28;20038;-69
2023/03/16 18:19:36;;;;;;;26.70;12.65;;;;;;;;;;10317600;28;20093;-70
2023/03/16 18:24:36;;;;;;;24.33;13.82;;;;;;;;;;10317833;28;20421;-72
2023/03/16 18:29:37;;;;;;;24.35;13.07;;;;;;;;;;10315275;28;20154;-72
2023/03/16 18:34:37;;;;;;;22.20;12.32;;;;;;;;;;10315577;28;20050;-70
2023/03/16 18:39:38;;;;;;;24.37;12.37;;;;;;;;;;10314236;28;20041;-69
2023/03/16 18:44:38;;;;;;;24.92;13.55;;;;;;;;;;10325886;28;20417;-70
2023/03/16 18:49:39;;;;;;;22.38;12.50;;;;;;;;;;10317117;28;20054;-69
2023/03/16 18:54:39;;;;;;;24.63;12.77;;;;;;;;;;10316983;28;20464;-70
2023/03/16 18:59:40;;;;;;;25.15;14.73;;;;;;;;;;10315481;28;20643;-69
2023/03/16 19:04:40;;;;;;;25.30;13.70;;;;;;;;;;10316889;28;20034;-70
2023/03/16 19:09:43;;;;;;;28.08;14.40;;;;;;;;;;10316742;28;20412;-71
2023/03/16 19:14:47;;;;;;;29.13;15.18;;;;;;;;;;10333674;28;20045;-72
2023/03/16 19:19:47;;;;;;;25.70;13.98;;;;;;;;;;10315967;28;20105;-71
2023/03/16 19:24:50;;;;;;;27.90;14.67;;;;;;;;;;10316203;28;20034;-70
2023/03/16 19:29:51;;;;;;;29.33;14.43;;;;;;;;;;10312726;28;20390;-70
2023/03/16 19:34:51;;;;;;;28.60;14.35;;;;;;;;;;10331570;28;20456;-70
2023/03/16 19:39:52;;;;;;;31.48;15.27;;;;;;;;;;10311165;28;20030;-71
2023/03/16 19:44:52;;;;;;;25.27;14.38;;;;;;;;;;10315423;28;20528;-71
2023/03/16 19:49:53;;;;;;;28.65;14.90;;;;;;;;;;10311205;28;20042;-70
2023/03/16 19:54:53;;;;;;;26.88;13.95;;;;;;;;;;10320719;28;20073;-70
2023/03/16 19:59:55;;;;;;;22.58;13.52;;;;;;;;;;10330505;28;20093;-70
2023/03/16 20:04:55;;;;;;;28.02;14.57;;;;;;;;;;10326461;28;20096;-70
2023/03/16 20:09:56;;;;;;;26.88;14.35;;;;;;;;;;10315147;28;20076;-71
2023/03/16 20:14:56;;;;;;;23.88;13.00;;;;;;;;;;10310421;28;20479;-70
2023/03/16 20:19:57;;;;;;;28.20;13.63;;;;;;;;;;10309082;28;20085;-70
2023/03/16 20:24:57;;;;;;;31.60;14.57;;;;;;;;;;10309108;28;20046;-70
2023/03/16 20:29:57;;;;;;;25.30;12.97;;;;;;;;;;10327629;28;20069;-69
2023/03/16 20:34:58;;;;;;;28.38;15.07;;;;;;;;;;10318270;28;20535;-71
2023/03/16 20:39:58;;;;;;;28.73;15.93;;;;;;;;;;10325296;28;20030;-70
2023/03/16 20:44:59;;;;;;;30.52;15.45;;;;;;;;;;10327811;28;20296;-70
2023/03/16 20:49:59;;;;;;;31.23;15.77;;;;;;;;;;10338364;28;20134;-69
2023/03/16 20:55:00;;;;;;;33.53;17.02;;;;;;;;;;10335563;28;20042;-70
2023/03/16 21:00:01;;;;;;;33.53;14.40;;;;;;;;;;10311649;28;20072;-70
2023/03/16 21:05:03;;;;;;;29.63;14.15;;;;;;;;;;10338484;28;20073;-70
2023/03/16 21:10:03;;;;;;;28.40;15.57;;;;;;;;;;10331725;28;20405;-69
2023/03/16 21:15:13;;;;;;;27.25;15.30;;;;;;;;;;10321106;28;20038;-69
2023/03/16 21:20:15;;;;;;;26.38;14.48;;;;;;;;;;10307867;28;20452;-70
2023/03/16 21:25:24;;;;;;;32.45;15.00;;;;;;;;;;10321759;28;20121;-71
2023/03/16 21:30:26;;;;;;;26.50;14.30;;;;;;;;;;10332932;28;20100;-70
2023/03/16 21:35:34;;;;;;;24.40;12.85;;;;;;;;;;10344530;28;20508;-72
2023/03/16 21:40:34;;;;;;;23.02;11.68;;;;;;;;;;10323800;28;20034;-69
2023/03/16 21:45:35;;;;;;;22.77;12.17;;;;;;;;;;10332611;28;20061;-69
2023/03/16 21:50:35;;;;;;;24.27;12.93;;;;;;;;;;10344217;28;20492;-69
2023/03/16 21:55:36;;;;;;;24.70;11.27;;;;;;;;;;10322988;28;20545;-70
2023/03/16 22:00:36;;;;;;;21.02;12.60;;;;;;;;;;10322260;28;20118;-69
2023/03/16 22:05:37;;;;;;;19.23;12.40;;;;;;;;;;10344016;28;20025;-69
2023/03/16 22:10:38;;;;;;;24.13;12.35;;;;;;;;;;10343525;28;20120;-69
2023/03/16 22:15:41;;;;;;;20.33;11.57;;;;;;;;;;10343121;28;20390;-70
2023/03/16 22:20:41;;;;;;;36.25;13.60;;;;;;;;;;10358200;28;20033;-70
2023/03/16 22:25:41;;;;;;;27.98;13.35;;;;;;;;;;10342805;28;20038;-69
2023/03/16 22:30:42;;;;;;;22.35;12.48;;;;;;;;;;10303993;28;20046;-69
2023/03/16 22:35:43;;;;;;;21.95;12.85;;;;;;;;;;10328944;28;20034;-69
2023/03/16 22:40:43;;;;;;;25.88;13.63;;;;;;;;;;10341780;28;20033;-69
2023/03/16 22:45:43;;;;;;;25.83;11.70;;;;;;;;;;10342409;28;20061;-70
2023/03/16 22:50:45;;;;;;;22.57;12.87;;;;;;;;;;10342517;28;20028;-70
2023/03/16 22:55:45;;;;;;;24.05;12.52;;;;;;;;;;10341782;28;21806;-70
2023/03/16 23:00:46;;;;;;;20.55;12.90;;;;;;;;;;10342047;28;20041;-70
2023/03/16 23:05:46;;;;;;;25.57;12.60;;;;;;;;;;10339664;28;20038;-70
2023/03/16 23:10:47;;;;;;;23.10;12.32;;;;;;;;;;10341542;28;20038;-70
2023/03/16 23:15:48;;;;;;;20.58;12.15;;;;;;;;;;10340738;28;20033;-70
2023/03/16 23:20:51;;;;;;;24.50;12.32;;;;;;;;;;10340652;28;20057;-70
2023/03/16 23:25:51;;;;;;;21.42;12.73;;;;;;;;;;10340904;28;20026;-70
2023/03/16 23:30:51;;;;;;;19.33;11.73;;;;;;;;;;10341568;28;20034;-70
2023/03/16 23:35:52;;;;;;;23.90;12.43;;;;;;;;;;10340746;28;20425;-70
2023/03/16 23:40:52;;;;;;;25.13;12.50;;;;;;;;;;10339966;28;20524;-70
2023/03/16 23:45:52;;;;;;;21.15;12.23;;;;;;;;;;10340072;28;20791;-71
2023/03/16 23:50:54;;;;;;;23.02;12.70;;;;;;;;;;10340131;28;20683;-69
2023/03/16 23:55:54;;;;;;;19.25;11.07;;;;;;;;;;10340381;28;20496;-70
